Weather at Lester B. Pearson International Airport

Public forecast

Using degrees Celsius for public forecast. Weather courtesy of forecast.io.

Current aviation weather report (METAR) for Lester B. Pearson International Airport

Retrieved 2021/07/27 08:00 UTC (44 seconds ago):

CYYZ 270800Z 27003KT 15SM SKC 19/14 A2996 RMK SLP144 DENSITY ALT 1200FT

Aviation forecast (TAF) for Lester B. Pearson International Airport

Retrieved 2021/07/27 06:42 UTC (1 hour ago):

TAF CYYZ 270538Z 2706/2812 29006KT P6SM SKC FM271300 32010KT P6SM BKN120 FM271500 32010G20KT P6SM -SHRA BKN100 PROB30 2715/2721 VRB15G30KT 11/2SM TSRA BR BKN040CB FM272300 34010KT P6SM BKN040 RMK NXT FCST BY 270900Z